sensor_id;sensor_type;location;lat;lon;timestamp;P1;durP1;ratioP1;P2;durP2;ratioP2
18435;SDS011;9346;52.006;4.720;2023-02-17T00:01:16;32.30;;;15.30;;
18435;SDS011;9346;52.006;4.720;2023-02-17T00:03:46;33.87;;;15.37;;
18435;SDS011;9346;52.006;4.720;2023-02-17T00:06:16;28.50;;;16.13;;
18435;SDS011;9346;52.006;4.720;2023-02-17T00:08:45;31.80;;;15.13;;
18435;SDS011;9346;52.006;4.720;2023-02-17T00:11:13;30.57;;;15.53;;
18435;SDS011;9346;52.006;4.720;2023-02-17T00:13:41;47.83;;;17.63;;
18435;SDS011;9346;52.006;4.720;2023-02-17T00:16:08;36.80;;;14.53;;
18435;SDS011;9346;52.006;4.720;2023-02-17T00:18:38;39.20;;;15.83;;
18435;SDS011;9346;52.006;4.720;2023-02-17T00:21:12;35.93;;;15.93;;
18435;SDS011;9346;52.006;4.720;2023-02-17T00:23:44;33.73;;;14.50;;
18435;SDS011;9346;52.006;4.720;2023-02-17T00:26:12;35.03;;;13.67;;
18435;SDS011;9346;52.006;4.720;2023-02-17T00:28:40;34.43;;;14.40;;
18435;SDS011;9346;52.006;4.720;2023-02-17T00:31:07;33.53;;;15.00;;
18435;SDS011;9346;52.006;4.720;2023-02-17T00:33:36;43.13;;;14.57;;
18435;SDS011;9346;52.006;4.720;2023-02-17T00:36:03;44.53;;;14.50;;
18435;SDS011;9346;52.006;4.720;2023-02-17T00:38:33;36.77;;;12.70;;
18435;SDS011;9346;52.006;4.720;2023-02-17T00:41:00;31.63;;;11.47;;
18435;SDS011;9346;52.006;4.720;2023-02-17T00:43:27;30.63;;;12.43;;
18435;SDS011;9346;52.006;4.720;2023-02-17T00:45:54;43.27;;;14.37;;
18435;SDS011;9346;52.006;4.720;2023-02-17T00:48:21;30.50;;;13.13;;
18435;SDS011;9346;52.006;4.720;2023-02-17T00:50:49;31.60;;;12.83;;
18435;SDS011;9346;52.006;4.720;2023-02-17T00:53:16;32.70;;;14.43;;
18435;SDS011;9346;52.006;4.720;2023-02-17T00:55:45;42.80;;;14.97;;
18435;SDS011;9346;52.006;4.720;2023-02-17T00:58:11;41.70;;;15.40;;
18435;SDS011;9346;52.006;4.720;2023-02-17T01:00:38;38.10;;;13.87;;
18435;SDS011;9346;52.006;4.720;2023-02-17T01:03:05;33.77;;;13.17;;
18435;SDS011;9346;52.006;4.720;2023-02-17T01:05:33;37.07;;;14.13;;
18435;SDS011;9346;52.006;4.720;2023-02-17T01:08:00;42.70;;;13.80;;
18435;SDS011;9346;52.006;4.720;2023-02-17T01:10:27;31.80;;;12.77;;
18435;SDS011;9346;52.006;4.720;2023-02-17T01:12:55;36.13;;;13.77;;
18435;SDS011;9346;52.006;4.720;2023-02-17T01:15:22;39.97;;;13.73;;
18435;SDS011;9346;52.006;4.720;2023-02-17T01:17:49;33.43;;;13.87;;
18435;SDS011;9346;52.006;4.720;2023-02-17T01:20:15;33.20;;;12.03;;
18435;SDS011;9346;52.006;4.720;2023-02-17T01:22:43;36.40;;;13.70;;
18435;SDS011;9346;52.006;4.720;2023-02-17T01:25:10;42.10;;;14.43;;
18435;SDS011;9346;52.006;4.720;2023-02-17T01:27:37;43.00;;;14.73;;
18435;SDS011;9346;52.006;4.720;2023-02-17T01:30:06;35.53;;;13.90;;
18435;SDS011;9346;52.006;4.720;2023-02-17T01:32:35;42.63;;;16.30;;
18435;SDS011;9346;52.006;4.720;2023-02-17T01:35:02;29.13;;;13.27;;
18435;SDS011;9346;52.006;4.720;2023-02-17T01:37:30;33.27;;;13.83;;
18435;SDS011;9346;52.006;4.720;2023-02-17T01:39:58;36.20;;;14.00;;
18435;SDS011;9346;52.006;4.720;2023-02-17T01:42:25;34.57;;;13.77;;
18435;SDS011;9346;52.006;4.720;2023-02-17T01:48:04;33.33;;;13.17;;
18435;SDS011;9346;52.006;4.720;2023-02-17T01:50:36;29.83;;;12.23;;
18435;SDS011;9346;52.006;4.720;2023-02-17T01:53:06;26.03;;;11.60;;
18435;SDS011;9346;52.006;4.720;2023-02-17T01:55:37;31.17;;;12.50;;
18435;SDS011;9346;52.006;4.720;2023-02-17T01:58:07;31.07;;;12.60;;
18435;SDS011;9346;52.006;4.720;2023-02-17T02:00:38;33.13;;;13.50;;
18435;SDS011;9346;52.006;4.720;2023-02-17T02:03:07;31.00;;;13.07;;
18435;SDS011;9346;52.006;4.720;2023-02-17T02:05:36;27.33;;;11.00;;
18435;SDS011;9346;52.006;4.720;2023-02-17T02:08:04;28.63;;;11.97;;
18435;SDS011;9346;52.006;4.720;2023-02-17T02:10:32;31.67;;;11.47;;
18435;SDS011;9346;52.006;4.720;2023-02-17T02:12:59;44.50;;;13.83;;
18435;SDS011;9346;52.006;4.720;2023-02-17T02:15:28;25.63;;;11.13;;
18435;SDS011;9346;52.006;4.720;2023-02-17T02:21:26;27.37;;;11.00;;
18435;SDS011;9346;52.006;4.720;2023-02-17T02:24:17;27.93;;;11.63;;
18435;SDS011;9346;52.006;4.720;2023-02-17T02:30:08;30.40;;;11.87;;
18435;SDS011;9346;52.006;4.720;2023-02-17T02:33:08;32.77;;;12.07;;
18435;SDS011;9346;52.006;4.720;2023-02-17T02:35:44;26.67;;;10.33;;
18435;SDS011;9346;52.006;4.720;2023-02-17T02:38:18;30.13;;;10.67;;
18435;SDS011;9346;52.006;4.720;2023-02-17T02:40:51;27.47;;;10.70;;
18435;SDS011;9346;52.006;4.720;2023-02-17T02:43:23;24.93;;;11.23;;
18435;SDS011;9346;52.006;4.720;2023-02-17T02:45:50;34.33;;;11.07;;
18435;SDS011;9346;52.006;4.720;2023-02-17T02:48:18;27.90;;;11.43;;
18435;SDS011;9346;52.006;4.720;2023-02-17T02:53:48;31.07;;;11.00;;
18435;SDS011;9346;52.006;4.720;2023-02-17T02:56:37;31.23;;;9.77;;
18435;SDS011;9346;52.006;4.720;2023-02-17T02:59:16;27.50;;;9.83;;
18435;SDS011;9346;52.006;4.720;2023-02-17T03:01:53;32.53;;;10.50;;
18435;SDS011;9346;52.006;4.720;2023-02-17T03:04:30;32.70;;;11.20;;
18435;SDS011;9346;52.006;4.720;2023-02-17T03:07:02;31.67;;;11.40;;
18435;SDS011;9346;52.006;4.720;2023-02-17T03:09:34;32.03;;;11.87;;
18435;SDS011;9346;52.006;4.720;2023-02-17T03:12:01;25.60;;;10.73;;
18435;SDS011;9346;52.006;4.720;2023-02-17T03:14:33;27.67;;;9.80;;
18435;SDS011;9346;52.006;4.720;2023-02-17T03:17:03;31.87;;;12.33;;
18435;SDS011;9346;52.006;4.720;2023-02-17T03:19:32;27.83;;;11.20;;
18435;SDS011;9346;52.006;4.720;2023-02-17T03:22:00;35.23;;;12.67;;
18435;SDS011;9346;52.006;4.720;2023-02-17T03:24:34;35.47;;;11.40;;
18435;SDS011;9346;52.006;4.720;2023-02-17T03:27:01;32.23;;;11.63;;
18435;SDS011;9346;52.006;4.720;2023-02-17T03:29:29;34.00;;;12.13;;
18435;SDS011;9346;52.006;4.720;2023-02-17T03:31:56;35.47;;;13.07;;
18435;SDS011;9346;52.006;4.720;2023-02-17T03:34:23;33.70;;;14.13;;
18435;SDS011;9346;52.006;4.720;2023-02-17T03:36:52;34.90;;;12.63;;
18435;SDS011;9346;52.006;4.720;2023-02-17T03:39:19;31.63;;;13.47;;
18435;SDS011;9346;52.006;4.720;2023-02-17T03:41:45;40.73;;;15.30;;
18435;SDS011;9346;52.006;4.720;2023-02-17T03:44:15;36.20;;;16.50;;
18435;SDS011;9346;52.006;4.720;2023-02-17T03:46:43;36.57;;;16.83;;
18435;SDS011;9346;52.006;4.720;2023-02-17T03:49:10;39.10;;;15.93;;
18435;SDS011;9346;52.006;4.720;2023-02-17T03:51:38;39.23;;;17.53;;
18435;SDS011;9346;52.006;4.720;2023-02-17T03:54:06;45.67;;;19.53;;
18435;SDS011;9346;52.006;4.720;2023-02-17T03:56:33;39.40;;;17.63;;
18435;SDS011;9346;52.006;4.720;2023-02-17T03:59:00;45.83;;;17.10;;
18435;SDS011;9346;52.006;4.720;2023-02-17T04:01:28;41.93;;;17.13;;
18435;SDS011;9346;52.006;4.720;2023-02-17T04:03:55;38.97;;;15.80;;
18435;SDS011;9346;52.006;4.720;2023-02-17T04:06:22;32.93;;;14.53;;
18435;SDS011;9346;52.006;4.720;2023-02-17T04:08:49;35.43;;;14.73;;
18435;SDS011;9346;52.006;4.720;2023-02-17T04:11:18;28.03;;;14.50;;
18435;SDS011;9346;52.006;4.720;2023-02-17T04:13:45;39.53;;;15.90;;
18435;SDS011;9346;52.006;4.720;2023-02-17T04:16:11;28.43;;;14.73;;
18435;SDS011;9346;52.006;4.720;2023-02-17T04:18:38;31.83;;;14.23;;
18435;SDS011;9346;52.006;4.720;2023-02-17T04:21:05;38.20;;;13.73;;
18435;SDS011;9346;52.006;4.720;2023-02-17T04:23:33;32.57;;;14.53;;
18435;SDS011;9346;52.006;4.720;2023-02-17T04:26:00;40.60;;;15.97;;
18435;SDS011;9346;52.006;4.720;2023-02-17T04:28:29;30.50;;;14.67;;
18435;SDS011;9346;52.006;4.720;2023-02-17T04:30:56;35.23;;;14.47;;
18435;SDS011;9346;52.006;4.720;2023-02-17T04:33:24;40.37;;;15.67;;
18435;SDS011;9346;52.006;4.720;2023-02-17T04:35:51;36.73;;;15.50;;
18435;SDS011;9346;52.006;4.720;2023-02-17T04:38:23;39.33;;;15.67;;
18435;SDS011;9346;52.006;4.720;2023-02-17T04:40:51;36.47;;;16.57;;
18435;SDS011;9346;52.006;4.720;2023-02-17T04:43:19;46.17;;;17.20;;
18435;SDS011;9346;52.006;4.720;2023-02-17T04:45:47;42.63;;;17.23;;
18435;SDS011;9346;52.006;4.720;2023-02-17T04:48:14;43.27;;;17.50;;
18435;SDS011;9346;52.006;4.720;2023-02-17T04:50:41;35.33;;;18.40;;
18435;SDS011;9346;52.006;4.720;2023-02-17T04:53:09;42.53;;;17.53;;
18435;SDS011;9346;52.006;4.720;2023-02-17T04:55:35;41.33;;;15.70;;
18435;SDS011;9346;52.006;4.720;2023-02-17T04:58:03;36.30;;;17.73;;
18435;SDS011;9346;52.006;4.720;2023-02-17T05:00:29;42.60;;;17.67;;
18435;SDS011;9346;52.006;4.720;2023-02-17T05:02:58;44.00;;;18.33;;
18435;SDS011;9346;52.006;4.720;2023-02-17T05:05:25;47.20;;;18.13;;
18435;SDS011;9346;52.006;4.720;2023-02-17T05:07:53;34.67;;;16.87;;
18435;SDS011;9346;52.006;4.720;2023-02-17T05:10:20;42.27;;;16.77;;
18435;SDS011;9346;52.006;4.720;2023-02-17T05:12:46;45.50;;;16.97;;
18435;SDS011;9346;52.006;4.720;2023-02-17T05:15:13;36.97;;;16.73;;
18435;SDS011;9346;52.006;4.720;2023-02-17T05:17:40;42.23;;;15.67;;
18435;SDS011;9346;52.006;4.720;2023-02-17T05:20:10;40.20;;;17.27;;
18435;SDS011;9346;52.006;4.720;2023-02-17T05:22:37;39.80;;;17.90;;
18435;SDS011;9346;52.006;4.720;2023-02-17T05:25:04;46.70;;;17.67;;
18435;SDS011;9346;52.006;4.720;2023-02-17T05:27:32;47.20;;;18.30;;
18435;SDS011;9346;52.006;4.720;2023-02-17T05:29:59;42.03;;;18.53;;
18435;SDS011;9346;52.006;4.720;2023-02-17T05:32:28;37.63;;;16.27;;
18435;SDS011;9346;52.006;4.720;2023-02-17T05:34:55;47.73;;;17.27;;
18435;SDS011;9346;52.006;4.720;2023-02-17T05:37:23;37.60;;;15.77;;
18435;SDS011;9346;52.006;4.720;2023-02-17T05:39:50;39.50;;;17.57;;
18435;SDS011;9346;52.006;4.720;2023-02-17T05:42:17;41.67;;;17.23;;
18435;SDS011;9346;52.006;4.720;2023-02-17T05:44:44;44.87;;;17.47;;
18435;SDS011;9346;52.006;4.720;2023-02-17T05:47:11;34.97;;;15.57;;
18435;SDS011;9346;52.006;4.720;2023-02-17T05:49:38;40.80;;;15.77;;
18435;SDS011;9346;52.006;4.720;2023-02-17T05:52:05;36.33;;;14.50;;
18435;SDS011;9346;52.006;4.720;2023-02-17T05:54:34;42.87;;;14.63;;
18435;SDS011;9346;52.006;4.720;2023-02-17T05:57:01;34.23;;;12.80;;
18435;SDS011;9346;52.006;4.720;2023-02-17T05:59:28;29.23;;;12.53;;
18435;SDS011;9346;52.006;4.720;2023-02-17T06:01:54;31.90;;;13.07;;
18435;SDS011;9346;52.006;4.720;2023-02-17T06:04:21;33.77;;;13.13;;
18435;SDS011;9346;52.006;4.720;2023-02-17T06:06:48;30.97;;;12.73;;
18435;SDS011;9346;52.006;4.720;2023-02-17T06:09:16;30.20;;;11.17;;
18435;SDS011;9346;52.006;4.720;2023-02-17T06:11:45;25.23;;;10.33;;
18435;SDS011;9346;52.006;4.720;2023-02-17T06:14:12;26.77;;;10.20;;
18435;SDS011;9346;52.006;4.720;2023-02-17T06:16:39;32.30;;;11.73;;
18435;SDS011;9346;52.006;4.720;2023-02-17T06:19:05;22.73;;;10.83;;
18435;SDS011;9346;52.006;4.720;2023-02-17T06:21:33;29.67;;;11.30;;
18435;SDS011;9346;52.006;4.720;2023-02-17T06:24:00;33.70;;;11.27;;
18435;SDS011;9346;52.006;4.720;2023-02-17T06:26:27;29.83;;;10.80;;
18435;SDS011;9346;52.006;4.720;2023-02-17T06:28:56;27.20;;;10.70;;
18435;SDS011;9346;52.006;4.720;2023-02-17T06:31:23;27.40;;;11.00;;
18435;SDS011;9346;52.006;4.720;2023-02-17T06:33:50;28.43;;;10.40;;
18435;SDS011;9346;52.006;4.720;2023-02-17T06:36:17;27.63;;;11.17;;
18435;SDS011;9346;52.006;4.720;2023-02-17T06:38:45;32.93;;;10.53;;
18435;SDS011;9346;52.006;4.720;2023-02-17T06:41:11;20.93;;;9.77;;
18435;SDS011;9346;52.006;4.720;2023-02-17T06:43:38;29.83;;;11.67;;
18435;SDS011;9346;52.006;4.720;2023-02-17T06:46:07;26.53;;;10.97;;
18435;SDS011;9346;52.006;4.720;2023-02-17T06:48:35;31.13;;;10.87;;
18435;SDS011;9346;52.006;4.720;2023-02-17T06:51:03;24.83;;;10.40;;
18435;SDS011;9346;52.006;4.720;2023-02-17T06:53:30;25.97;;;10.80;;
18435;SDS011;9346;52.006;4.720;2023-02-17T06:55:57;28.57;;;10.43;;
18435;SDS011;9346;52.006;4.720;2023-02-17T06:58:24;26.70;;;11.00;;
18435;SDS011;9346;52.006;4.720;2023-02-17T07:00:51;24.67;;;10.97;;
18435;SDS011;9346;52.006;4.720;2023-02-17T07:03:20;25.77;;;11.30;;
18435;SDS011;9346;52.006;4.720;2023-02-17T07:05:47;30.83;;;10.93;;
18435;SDS011;9346;52.006;4.720;2023-02-17T07:08:15;27.40;;;10.30;;
18435;SDS011;9346;52.006;4.720;2023-02-17T07:10:42;26.23;;;11.27;;
18435;SDS011;9346;52.006;4.720;2023-02-17T07:13:09;24.93;;;10.47;;
18435;SDS011;9346;52.006;4.720;2023-02-17T07:15:36;22.20;;;10.77;;
18435;SDS011;9346;52.006;4.720;2023-02-17T07:18:04;29.93;;;11.83;;
18435;SDS011;9346;52.006;4.720;2023-02-17T07:20:32;28.87;;;13.43;;
18435;SDS011;9346;52.006;4.720;2023-02-17T07:22:59;25.17;;;11.83;;
18435;SDS011;9346;52.006;4.720;2023-02-17T07:25:26;29.77;;;12.00;;
18435;SDS011;9346;52.006;4.720;2023-02-17T07:27:53;25.67;;;13.13;;
18435;SDS011;9346;52.006;4.720;2023-02-17T07:30:22;30.57;;;13.67;;
18435;SDS011;9346;52.006;4.720;2023-02-17T07:32:48;28.93;;;11.63;;
18435;SDS011;9346;52.006;4.720;2023-02-17T07:35:15;31.90;;;14.53;;
18435;SDS011;9346;52.006;4.720;2023-02-17T07:37:44;29.63;;;13.17;;
18435;SDS011;9346;52.006;4.720;2023-02-17T07:40:11;28.47;;;12.87;;
18435;SDS011;9346;52.006;4.720;2023-02-17T07:42:39;29.47;;;13.13;;
18435;SDS011;9346;52.006;4.720;2023-02-17T07:45:06;31.73;;;13.23;;
18435;SDS011;9346;52.006;4.720;2023-02-17T07:47:33;24.67;;;11.93;;
18435;SDS011;9346;52.006;4.720;2023-02-17T07:50:00;25.23;;;11.87;;
18435;SDS011;9346;52.006;4.720;2023-02-17T07:52:27;28.83;;;13.47;;
18435;SDS011;9346;52.006;4.720;2023-02-17T07:54:56;27.50;;;13.40;;
18435;SDS011;9346;52.006;4.720;2023-02-17T07:57:23;27.40;;;12.87;;
18435;SDS011;9346;52.006;4.720;2023-02-17T07:59:49;29.17;;;13.97;;
18435;SDS011;9346;52.006;4.720;2023-02-17T08:02:16;27.40;;;12.70;;
18435;SDS011;9346;52.006;4.720;2023-02-17T08:04:44;29.50;;;12.83;;
18435;SDS011;9346;52.006;4.720;2023-02-17T08:07:10;21.60;;;11.57;;
18435;SDS011;9346;52.006;4.720;2023-02-17T08:09:38;27.73;;;13.77;;
18435;SDS011;9346;52.006;4.720;2023-02-17T08:12:24;28.90;;;12.47;;
18435;SDS011;9346;52.006;4.720;2023-02-17T08:15:09;25.13;;;11.77;;
18435;SDS011;9346;52.006;4.720;2023-02-17T08:17:36;30.27;;;14.47;;
18435;SDS011;9346;52.006;4.720;2023-02-17T08:20:04;26.57;;;13.87;;
18435;SDS011;9346;52.006;4.720;2023-02-17T08:22:32;27.10;;;13.83;;
18435;SDS011;9346;52.006;4.720;2023-02-17T08:24:59;29.87;;;14.30;;
18435;SDS011;9346;52.006;4.720;2023-02-17T08:27:28;29.13;;;14.23;;
18435;SDS011;9346;52.006;4.720;2023-02-17T08:29:55;37.30;;;15.90;;
18435;SDS011;9346;52.006;4.720;2023-02-17T08:32:22;29.27;;;14.57;;
18435;SDS011;9346;52.006;4.720;2023-02-17T08:34:50;34.10;;;14.27;;
18435;SDS011;9346;52.006;4.720;2023-02-17T08:37:20;35.13;;;16.87;;
18435;SDS011;9346;52.006;4.720;2023-02-17T08:39:47;31.07;;;15.10;;
18435;SDS011;9346;52.006;4.720;2023-02-17T08:42:14;32.70;;;14.10;;
18435;SDS011;9346;52.006;4.720;2023-02-17T08:44:43;33.63;;;14.97;;
18435;SDS011;9346;52.006;4.720;2023-02-17T08:47:10;29.60;;;14.53;;
18435;SDS011;9346;52.006;4.720;2023-02-17T08:49:39;24.20;;;12.27;;
18435;SDS011;9346;52.006;4.720;2023-02-17T08:52:06;27.20;;;12.33;;
18435;SDS011;9346;52.006;4.720;2023-02-17T08:54:33;23.43;;;11.60;;
18435;SDS011;9346;52.006;4.720;2023-02-17T08:57:00;31.83;;;13.03;;
18435;SDS011;9346;52.006;4.720;2023-02-17T08:59:27;26.60;;;12.73;;
18435;SDS011;9346;52.006;4.720;2023-02-17T09:01:57;26.93;;;12.70;;
18435;SDS011;9346;52.006;4.720;2023-02-17T09:04:24;26.90;;;13.73;;
18435;SDS011;9346;52.006;4.720;2023-02-17T09:06:52;25.93;;;13.87;;
18435;SDS011;9346;52.006;4.720;2023-02-17T09:09:21;17.90;;;11.83;;
18435;SDS011;9346;52.006;4.720;2023-02-17T09:11:51;22.53;;;11.70;;
18435;SDS011;9346;52.006;4.720;2023-02-17T09:14:20;23.80;;;10.97;;
18435;SDS011;9346;52.006;4.720;2023-02-17T09:16:48;23.60;;;12.07;;
18435;SDS011;9346;52.006;4.720;2023-02-17T09:19:16;25.30;;;13.10;;
18435;SDS011;9346;52.006;4.720;2023-02-17T09:21:44;23.47;;;12.37;;
18435;SDS011;9346;52.006;4.720;2023-02-17T09:24:12;21.00;;;11.23;;
18435;SDS011;9346;52.006;4.720;2023-02-17T09:26:39;26.43;;;12.83;;
18435;SDS011;9346;52.006;4.720;2023-02-17T09:29:07;21.63;;;12.57;;
18435;SDS011;9346;52.006;4.720;2023-02-17T09:31:35;29.50;;;12.83;;
18435;SDS011;9346;52.006;4.720;2023-02-17T09:34:10;26.57;;;12.50;;
18435;SDS011;9346;52.006;4.720;2023-02-17T09:36:40;23.40;;;12.70;;
18435;SDS011;9346;52.006;4.720;2023-02-17T09:39:08;30.27;;;13.33;;
18435;SDS011;9346;52.006;4.720;2023-02-17T09:41:38;24.50;;;12.20;;
18435;SDS011;9346;52.006;4.720;2023-02-17T09:44:13;22.50;;;12.13;;
18435;SDS011;9346;52.006;4.720;2023-02-17T09:46:47;24.10;;;11.23;;
18435;SDS011;9346;52.006;4.720;2023-02-17T09:49:21;19.33;;;10.50;;
18435;SDS011;9346;52.006;4.720;2023-02-17T09:51:54;24.60;;;12.17;;
18435;SDS011;9346;52.006;4.720;2023-02-17T09:54:27;25.23;;;11.83;;
18435;SDS011;9346;52.006;4.720;2023-02-17T09:56:58;18.90;;;9.97;;
18435;SDS011;9346;52.006;4.720;2023-02-17T09:59:28;20.80;;;9.67;;
18435;SDS011;9346;52.006;4.720;2023-02-17T10:02:05;13.83;;;8.63;;
18435;SDS011;9346;52.006;4.720;2023-02-17T10:04:36;19.83;;;10.13;;
18435;SDS011;9346;52.006;4.720;2023-02-17T10:07:10;18.53;;;11.50;;
18435;SDS011;9346;52.006;4.720;2023-02-17T10:09:46;22.87;;;11.53;;
18435;SDS011;9346;52.006;4.720;2023-02-17T10:12:18;26.20;;;12.73;;
18435;SDS011;9346;52.006;4.720;2023-02-17T10:14:50;20.97;;;11.70;;
18435;SDS011;9346;52.006;4.720;2023-02-17T10:17:25;21.03;;;11.27;;
18435;SDS011;9346;52.006;4.720;2023-02-17T10:20:02;27.27;;;11.57;;
18435;SDS011;9346;52.006;4.720;2023-02-17T10:22:34;23.40;;;13.63;;
18435;SDS011;9346;52.006;4.720;2023-02-17T10:25:03;22.87;;;13.63;;
18435;SDS011;9346;52.006;4.720;2023-02-17T10:27:40;24.40;;;13.57;;
18435;SDS011;9346;52.006;4.720;2023-02-17T10:30:20;19.43;;;11.17;;
18435;SDS011;9346;52.006;4.720;2023-02-17T10:33:01;21.93;;;14.13;;
18435;SDS011;9346;52.006;4.720;2023-02-17T10:35:41;22.80;;;12.67;;
18435;SDS011;9346;52.006;4.720;2023-02-17T10:38:18;25.10;;;10.90;;
18435;SDS011;9346;52.006;4.720;2023-02-17T10:40:59;21.00;;;12.47;;
18435;SDS011;9346;52.006;4.720;2023-02-17T10:43:30;23.47;;;13.50;;
18435;SDS011;9346;52.006;4.720;2023-02-17T10:45:58;31.03;;;12.10;;
18435;SDS011;9346;52.006;4.720;2023-02-17T10:48:39;25.03;;;12.63;;
18435;SDS011;9346;52.006;4.720;2023-02-17T10:51:12;20.40;;;10.63;;
18435;SDS011;9346;52.006;4.720;2023-02-17T10:53:43;18.23;;;11.20;;
18435;SDS011;9346;52.006;4.720;2023-02-17T10:56:15;17.57;;;10.93;;
18435;SDS011;9346;52.006;4.720;2023-02-17T10:58:47;19.43;;;11.30;;
18435;SDS011;9346;52.006;4.720;2023-02-17T11:01:19;21.60;;;12.07;;
18435;SDS011;9346;52.006;4.720;2023-02-17T11:03:57;24.10;;;11.73;;
18435;SDS011;9346;52.006;4.720;2023-02-17T11:06:25;19.87;;;12.07;;
18435;SDS011;9346;52.006;4.720;2023-02-17T11:09:04;22.03;;;11.13;;
18435;SDS011;9346;52.006;4.720;2023-02-17T11:11:35;20.60;;;10.93;;
18435;SDS011;9346;52.006;4.720;2023-02-17T11:14:09;19.70;;;11.17;;
18435;SDS011;9346;52.006;4.720;2023-02-17T11:16:39;20.03;;;10.73;;
18435;SDS011;9346;52.006;4.720;2023-02-17T11:19:17;19.63;;;9.57;;
18435;SDS011;9346;52.006;4.720;2023-02-17T11:21:48;16.70;;;9.77;;
18435;SDS011;9346;52.006;4.720;2023-02-17T11:24:18;17.33;;;8.80;;
18435;SDS011;9346;52.006;4.720;2023-02-17T11:26:53;18.67;;;8.97;;
18435;SDS011;9346;52.006;4.720;2023-02-17T11:29:22;18.03;;;8.37;;
18435;SDS011;9346;52.006;4.720;2023-02-17T11:31:52;14.00;;;7.53;;
18435;SDS011;9346;52.006;4.720;2023-02-17T11:34:21;19.37;;;7.43;;
18435;SDS011;9346;52.006;4.720;2023-02-17T11:36:56;18.13;;;7.33;;
18435;SDS011;9346;52.006;4.720;2023-02-17T11:39:25;12.33;;;6.87;;
18435;SDS011;9346;52.006;4.720;2023-02-17T11:41:52;14.27;;;6.17;;
18435;SDS011;9346;52.006;4.720;2023-02-17T11:44:22;8.80;;;5.43;;
18435;SDS011;9346;52.006;4.720;2023-02-17T11:46:51;13.03;;;6.00;;
18435;SDS011;9346;52.006;4.720;2023-02-17T11:49:32;19.60;;;7.03;;
18435;SDS011;9346;52.006;4.720;2023-02-17T11:52:27;10.20;;;5.93;;
18435;SDS011;9346;52.006;4.720;2023-02-17T11:55:12;12.17;;;5.90;;
18435;SDS011;9346;52.006;4.720;2023-02-17T11:57:44;15.27;;;5.77;;
18435;SDS011;9346;52.006;4.720;2023-02-17T12:00:19;16.00;;;6.57;;
18435;SDS011;9346;52.006;4.720;2023-02-17T12:05:59;17.83;;;7.17;;
18435;SDS011;9346;52.006;4.720;2023-02-17T12:08:37;10.67;;;6.30;;
18435;SDS011;9346;52.006;4.720;2023-02-17T12:11:17;16.27;;;6.63;;
18435;SDS011;9346;52.006;4.720;2023-02-17T12:13:51;12.67;;;5.87;;
18435;SDS011;9346;52.006;4.720;2023-02-17T12:16:28;14.47;;;5.50;;
18435;SDS011;9346;52.006;4.720;2023-02-17T12:19:18;9.20;;;5.47;;
18435;SDS011;9346;52.006;4.720;2023-02-17T12:22:14;18.00;;;6.33;;
18435;SDS011;9346;52.006;4.720;2023-02-17T12:24:47;13.10;;;5.47;;
18435;SDS011;9346;52.006;4.720;2023-02-17T12:27:28;14.57;;;5.50;;
18435;SDS011;9346;52.006;4.720;2023-02-17T12:30:15;10.57;;;5.60;;
18435;SDS011;9346;52.006;4.720;2023-02-17T12:36:07;10.27;;;4.47;;
18435;SDS011;9346;52.006;4.720;2023-02-17T12:38:38;13.67;;;4.80;;
18435;SDS011;9346;52.006;4.720;2023-02-17T12:41:08;8.00;;;4.27;;
18435;SDS011;9346;52.006;4.720;2023-02-17T12:43:41;9.83;;;4.60;;
18435;SDS011;9346;52.006;4.720;2023-02-17T12:46:13;14.90;;;4.03;;
18435;SDS011;9346;52.006;4.720;2023-02-17T12:48:42;6.47;;;3.73;;
18435;SDS011;9346;52.006;4.720;2023-02-17T12:51:16;8.27;;;2.80;;
18435;SDS011;9346;52.006;4.720;2023-02-17T12:53:49;9.87;;;3.80;;
18435;SDS011;9346;52.006;4.720;2023-02-17T12:56:36;11.63;;;3.80;;
18435;SDS011;9346;52.006;4.720;2023-02-17T13:01:59;8.47;;;3.13;;
18435;SDS011;9346;52.006;4.720;2023-02-17T13:04:30;9.43;;;3.90;;
18435;SDS011;9346;52.006;4.720;2023-02-17T13:07:01;6.07;;;3.20;;
18435;SDS011;9346;52.006;4.720;2023-02-17T13:09:35;6.30;;;3.47;;
18435;SDS011;9346;52.006;4.720;2023-02-17T13:12:09;7.83;;;3.40;;
18435;SDS011;9346;52.006;4.720;2023-02-17T13:14:54;14.33;;;4.10;;
18435;SDS011;9346;52.006;4.720;2023-02-17T13:54:41;5.47;;;3.00;;
18435;SDS011;9346;52.006;4.720;2023-02-17T13:57:21;15.67;;;3.40;;
18435;SDS011;9346;52.006;4.720;2023-02-17T13:59:49;17.33;;;3.43;;
18435;SDS011;9346;52.006;4.720;2023-02-17T14:02:17;12.70;;;3.20;;
18435;SDS011;9346;52.006;4.720;2023-02-17T14:04:46;11.20;;;3.30;;
18435;SDS011;9346;52.006;4.720;2023-02-17T14:07:13;12.73;;;2.80;;
18435;SDS011;9346;52.006;4.720;2023-02-17T14:09:50;13.63;;;3.03;;
18435;SDS011;9346;52.006;4.720;2023-02-17T14:12:21;13.53;;;2.63;;
18435;SDS011;9346;52.006;4.720;2023-02-17T14:17:26;13.10;;;3.13;;
18435;SDS011;9346;52.006;4.720;2023-02-17T14:19:55;16.80;;;3.90;;
18435;SDS011;9346;52.006;4.720;2023-02-17T14:22:23;6.53;;;2.63;;
18435;SDS011;9346;52.006;4.720;2023-02-17T14:25:01;14.13;;;2.83;;
18435;SDS011;9346;52.006;4.720;2023-02-17T14:27:39;6.93;;;2.97;;
18435;SDS011;9346;52.006;4.720;2023-02-17T14:30:11;10.10;;;2.67;;
18435;SDS011;9346;52.006;4.720;2023-02-17T14:32:39;8.80;;;2.70;;
18435;SDS011;9346;52.006;4.720;2023-02-17T14:35:07;8.43;;;2.10;;
18435;SDS011;9346;52.006;4.720;2023-02-17T14:37:44;10.00;;;3.53;;
18435;SDS011;9346;52.006;4.720;2023-02-17T14:40:15;8.00;;;2.60;;
18435;SDS011;9346;52.006;4.720;2023-02-17T14:42:43;10.07;;;3.13;;
18435;SDS011;9346;52.006;4.720;2023-02-17T14:45:11;6.37;;;2.57;;
18435;SDS011;9346;52.006;4.720;2023-02-17T14:47:39;10.50;;;3.13;;
18435;SDS011;9346;52.006;4.720;2023-02-17T14:50:06;10.53;;;2.50;;
18435;SDS011;9346;52.006;4.720;2023-02-17T14:52:34;13.27;;;3.03;;
18435;SDS011;9346;52.006;4.720;2023-02-17T14:55:10;10.37;;;2.57;;
18435;SDS011;9346;52.006;4.720;2023-02-17T14:57:43;8.87;;;3.30;;
18435;SDS011;9346;52.006;4.720;2023-02-17T15:00:11;10.67;;;2.77;;
18435;SDS011;9346;52.006;4.720;2023-02-17T15:02:39;8.13;;;2.40;;
18435;SDS011;9346;52.006;4.720;2023-02-17T15:05:06;10.33;;;2.53;;
18435;SDS011;9346;52.006;4.720;2023-02-17T15:07:33;9.73;;;2.70;;
18435;SDS011;9346;52.006;4.720;2023-02-17T15:10:02;7.87;;;2.93;;
18435;SDS011;9346;52.006;4.720;2023-02-17T15:12:39;9.27;;;2.67;;
18435;SDS011;9346;52.006;4.720;2023-02-17T15:15:09;6.53;;;2.70;;
18435;SDS011;9346;52.006;4.720;2023-02-17T15:17:40;9.33;;;3.03;;
18435;SDS011;9346;52.006;4.720;2023-02-17T15:20:07;6.20;;;2.57;;
18435;SDS011;9346;52.006;4.720;2023-02-17T15:22:35;8.90;;;2.40;;
18435;SDS011;9346;52.006;4.720;2023-02-17T15:25:08;5.47;;;2.83;;
18435;SDS011;9346;52.006;4.720;2023-02-17T15:27:38;8.77;;;3.83;;
18435;SDS011;9346;52.006;4.720;2023-02-17T15:30:05;13.90;;;2.70;;
18435;SDS011;9346;52.006;4.720;2023-02-17T15:32:37;8.87;;;2.20;;
18435;SDS011;9346;52.006;4.720;2023-02-17T15:35:11;5.93;;;2.77;;
18435;SDS011;9346;52.006;4.720;2023-02-17T15:37:41;9.37;;;2.80;;
18435;SDS011;9346;52.006;4.720;2023-02-17T15:40:11;11.20;;;2.17;;
18435;SDS011;9346;52.006;4.720;2023-02-17T15:42:39;11.30;;;2.73;;
18435;SDS011;9346;52.006;4.720;2023-02-17T15:45:11;7.67;;;2.77;;
18435;SDS011;9346;52.006;4.720;2023-02-17T15:47:40;8.90;;;2.43;;
18435;SDS011;9346;52.006;4.720;2023-02-17T15:50:14;6.77;;;2.13;;
18435;SDS011;9346;52.006;4.720;2023-02-17T15:52:44;12.27;;;3.03;;
18435;SDS011;9346;52.006;4.720;2023-02-17T15:55:11;10.27;;;2.63;;
18435;SDS011;9346;52.006;4.720;2023-02-17T15:57:39;8.53;;;2.37;;
18435;SDS011;9346;52.006;4.720;2023-02-17T16:00:17;5.90;;;1.70;;